sensor_id;sensor_type;location;lat;lon;timestamp;temperature;humidity
13174;DHT22;6652;48.802;9.190;2023-05-10T00:00:11;15.60;99.90
13174;DHT22;6652;48.802;9.190;2023-05-10T00:02:38;15.50;99.90
13174;DHT22;6652;48.802;9.190;2023-05-10T00:05:06;15.50;99.90
13174;DHT22;6652;48.802;9.190;2023-05-10T00:07:33;15.50;99.90
13174;DHT22;6652;48.802;9.190;2023-05-10T00:10:00;15.40;99.90
13174;DHT22;6652;48.802;9.190;2023-05-10T00:12:27;15.30;99.90
13174;DHT22;6652;48.802;9.190;2023-05-10T00:14:53;15.40;99.90
13174;DHT22;6652;48.802;9.190;2023-05-10T00:17:21;15.30;99.90
13174;DHT22;6652;48.802;9.190;2023-05-10T00:19:48;15.20;99.90
13174;DHT22;6652;48.802;9.190;2023-05-10T00:22:15;15.30;99.90
13174;DHT22;6652;48.802;9.190;2023-05-10T00:24:42;15.20;99.90
13174;DHT22;6652;48.802;9.190;2023-05-10T00:27:08;15.10;99.90
13174;DHT22;6652;48.802;9.190;2023-05-10T00:29:35;15.10;99.90
13174;DHT22;6652;48.802;9.190;2023-05-10T00:32:02;15.00;99.90
13174;DHT22;6652;48.802;9.190;2023-05-10T00:34:30;14.90;99.90
13174;DHT22;6652;48.802;9.190;2023-05-10T00:36:57;14.90;99.90
13174;DHT22;6652;48.802;9.190;2023-05-10T00:39:23;14.80;99.90
13174;DHT22;6652;48.802;9.190;2023-05-10T00:41:51;14.80;99.90
13174;DHT22;6652;48.802;9.190;2023-05-10T00:44:18;14.70;99.90
13174;DHT22;6652;48.802;9.190;2023-05-10T00:46:45;14.70;99.90
13174;DHT22;6652;48.802;9.190;2023-05-10T00:49:13;14.60;99.90
13174;DHT22;6652;48.802;9.190;2023-05-10T00:51:41;14.60;99.90
13174;DHT22;6652;48.802;9.190;2023-05-10T00:54:08;14.50;99.90
13174;DHT22;6652;48.802;9.190;2023-05-10T00:56:35;14.50;99.90
13174;DHT22;6652;48.802;9.190;2023-05-10T00:59:03;14.30;99.90
13174;DHT22;6652;48.802;9.190;2023-05-10T01:01:30;14.40;99.90
13174;DHT22;6652;48.802;9.190;2023-05-10T01:03:58;14.30;99.90
13174;DHT22;6652;48.802;9.190;2023-05-10T01:06:25;14.30;99.90
13174;DHT22;6652;48.802;9.190;2023-05-10T01:08:54;14.30;99.90
13174;DHT22;6652;48.802;9.190;2023-05-10T01:11:21;14.30;99.90
13174;DHT22;6652;48.802;9.190;2023-05-10T01:13:54;14.30;99.90
13174;DHT22;6652;48.802;9.190;2023-05-10T01:16:22;14.20;99.90
13174;DHT22;6652;48.802;9.190;2023-05-10T01:18:49;14.30;99.90
13174;DHT22;6652;48.802;9.190;2023-05-10T01:21:26;14.70;99.90
13174;DHT22;6652;48.802;9.190;2023-05-10T01:24:22;14.10;99.90
13174;DHT22;6652;48.802;9.190;2023-05-10T01:27:17;14.20;99.90
13174;DHT22;6652;48.802;9.190;2023-05-10T01:30:08;14.10;99.90
13174;DHT22;6652;48.802;9.190;2023-05-10T01:32:45;14.10;99.90
13174;DHT22;6652;48.802;9.190;2023-05-10T01:35:18;14.20;99.90
13174;DHT22;6652;48.802;9.190;2023-05-10T01:37:57;14.20;99.90
13174;DHT22;6652;48.802;9.190;2023-05-10T01:40:30;14.20;99.90
13174;DHT22;6652;48.802;9.190;2023-05-10T01:43:01;14.20;99.90
13174;DHT22;6652;48.802;9.190;2023-05-10T01:45:31;14.20;99.90
13174;DHT22;6652;48.802;9.190;2023-05-10T01:48:06;14.20;99.90
13174;DHT22;6652;48.802;9.190;2023-05-10T01:50:35;14.20;99.90
13174;DHT22;6652;48.802;9.190;2023-05-10T01:53:02;14.20;99.90
13174;DHT22;6652;48.802;9.190;2023-05-10T01:55:32;14.20;99.90
13174;DHT22;6652;48.802;9.190;2023-05-10T01:58:04;14.20;99.90
13174;DHT22;6652;48.802;9.190;2023-05-10T02:00:32;14.10;99.90
13174;DHT22;6652;48.802;9.190;2023-05-10T02:03:03;14.10;99.90
13174;DHT22;6652;48.802;9.190;2023-05-10T02:05:32;14.10;99.90
13174;DHT22;6652;48.802;9.190;2023-05-10T02:08:01;14.10;99.90
13174;DHT22;6652;48.802;9.190;2023-05-10T02:10:30;14.10;99.90
13174;DHT22;6652;48.802;9.190;2023-05-10T02:12:59;14.10;99.90
13174;DHT22;6652;48.802;9.190;2023-05-10T02:15:26;14.20;99.90
13174;DHT22;6652;48.802;9.190;2023-05-10T02:17:55;14.10;99.90
13174;DHT22;6652;48.802;9.190;2023-05-10T02:20:25;14.00;99.90
13174;DHT22;6652;48.802;9.190;2023-05-10T02:22:54;14.00;99.90
13174;DHT22;6652;48.802;9.190;2023-05-10T02:25:23;13.90;99.90
13174;DHT22;6652;48.802;9.190;2023-05-10T02:27:53;14.00;99.90
13174;DHT22;6652;48.802;9.190;2023-05-10T02:30:21;14.00;99.90
13174;DHT22;6652;48.802;9.190;2023-05-10T02:32:49;13.90;99.90
13174;DHT22;6652;48.802;9.190;2023-05-10T02:35:17;13.90;99.90
13174;DHT22;6652;48.802;9.190;2023-05-10T02:37:45;13.80;99.90
13174;DHT22;6652;48.802;9.190;2023-05-10T02:40:14;13.80;99.90
13174;DHT22;6652;48.802;9.190;2023-05-10T02:42:42;13.80;99.90
13174;DHT22;6652;48.802;9.190;2023-05-10T02:45:13;13.80;99.90
13174;DHT22;6652;48.802;9.190;2023-05-10T02:47:42;13.70;99.90
13174;DHT22;6652;48.802;9.190;2023-05-10T02:50:09;13.90;99.90
13174;DHT22;6652;48.802;9.190;2023-05-10T02:52:40;13.90;99.90
13174;DHT22;6652;48.802;9.190;2023-05-10T02:55:12;13.90;99.90
13174;DHT22;6652;48.802;9.190;2023-05-10T02:57:43;14.00;99.90
13174;DHT22;6652;48.802;9.190;2023-05-10T03:00:12;13.90;99.90
13174;DHT22;6652;48.802;9.190;2023-05-10T03:02:38;14.00;99.90
13174;DHT22;6652;48.802;9.190;2023-05-10T03:05:06;14.00;99.90
13174;DHT22;6652;48.802;9.190;2023-05-10T03:07:33;14.00;99.90
13174;DHT22;6652;48.802;9.190;2023-05-10T03:10:00;14.00;99.90
13174;DHT22;6652;48.802;9.190;2023-05-10T03:12:37;14.00;99.90
13174;DHT22;6652;48.802;9.190;2023-05-10T03:15:13;14.00;99.90
13174;DHT22;6652;48.802;9.190;2023-05-10T03:17:45;14.00;99.90
13174;DHT22;6652;48.802;9.190;2023-05-10T03:20:20;14.00;99.90
13174;DHT22;6652;48.802;9.190;2023-05-10T03:22:51;14.00;99.90
13174;DHT22;6652;48.802;9.190;2023-05-10T03:25:19;14.10;99.90
13174;DHT22;6652;48.802;9.190;2023-05-10T03:27:49;14.00;99.90
13174;DHT22;6652;48.802;9.190;2023-05-10T03:30:16;14.00;99.90
13174;DHT22;6652;48.802;9.190;2023-05-10T03:32:44;14.10;99.90
13174;DHT22;6652;48.802;9.190;2023-05-10T03:35:12;14.00;99.90
13174;DHT22;6652;48.802;9.190;2023-05-10T03:37:39;14.00;99.90
13174;DHT22;6652;48.802;9.190;2023-05-10T03:40:07;14.00;99.90
13174;DHT22;6652;48.802;9.190;2023-05-10T03:42:34;14.00;99.90
13174;DHT22;6652;48.802;9.190;2023-05-10T03:45:02;14.00;99.90
13174;DHT22;6652;48.802;9.190;2023-05-10T03:47:29;14.00;99.90
13174;DHT22;6652;48.802;9.190;2023-05-10T03:49:57;14.00;99.90
13174;DHT22;6652;48.802;9.190;2023-05-10T03:52:23;13.90;99.90
13174;DHT22;6652;48.802;9.190;2023-05-10T03:54:50;14.00;99.90
13174;DHT22;6652;48.802;9.190;2023-05-10T03:57:17;14.00;99.90
13174;DHT22;6652;48.802;9.190;2023-05-10T03:59:44;14.00;99.90
13174;DHT22;6652;48.802;9.190;2023-05-10T04:02:12;14.00;99.90
13174;DHT22;6652;48.802;9.190;2023-05-10T04:04:39;13.90;99.90
13174;DHT22;6652;48.802;9.190;2023-05-10T04:07:06;13.90;99.90
13174;DHT22;6652;48.802;9.190;2023-05-10T04:09:32;13.90;99.90
13174;DHT22;6652;48.802;9.190;2023-05-10T04:11:59;14.20;99.90
13174;DHT22;6652;48.802;9.190;2023-05-10T04:14:27;13.90;99.90
13174;DHT22;6652;48.802;9.190;2023-05-10T04:16:54;13.90;99.90
13174;DHT22;6652;48.802;9.190;2023-05-10T04:19:23;13.90;99.90
13174;DHT22;6652;48.802;9.190;2023-05-10T04:21:50;13.90;99.90
13174;DHT22;6652;48.802;9.190;2023-05-10T04:24:16;13.90;99.90
13174;DHT22;6652;48.802;9.190;2023-05-10T04:26:43;13.90;99.90
13174;DHT22;6652;48.802;9.190;2023-05-10T04:29:10;13.90;99.90
13174;DHT22;6652;48.802;9.190;2023-05-10T04:31:37;13.90;99.90
13174;DHT22;6652;48.802;9.190;2023-05-10T04:34:04;13.90;99.90
13174;DHT22;6652;48.802;9.190;2023-05-10T04:36:33;13.90;99.90
13174;DHT22;6652;48.802;9.190;2023-05-10T04:39:01;13.90;99.90
13174;DHT22;6652;48.802;9.190;2023-05-10T04:41:38;13.90;99.90
13174;DHT22;6652;48.802;9.190;2023-05-10T04:44:04;13.90;99.90
13174;DHT22;6652;48.802;9.190;2023-05-10T04:46:31;14.00;99.90
13174;DHT22;6652;48.802;9.190;2023-05-10T04:48:58;14.00;99.90
13174;DHT22;6652;48.802;9.190;2023-05-10T04:51:25;14.10;99.90
13174;DHT22;6652;48.802;9.190;2023-05-10T04:53:53;14.10;99.90
13174;DHT22;6652;48.802;9.190;2023-05-10T04:56:20;14.10;99.90
13174;DHT22;6652;48.802;9.190;2023-05-10T04:58:47;14.20;99.90
13174;DHT22;6652;48.802;9.190;2023-05-10T05:01:14;14.30;99.90
13174;DHT22;6652;48.802;9.190;2023-05-10T05:03:41;14.40;99.90
13174;DHT22;6652;48.802;9.190;2023-05-10T05:06:20;14.50;99.90
13174;DHT22;6652;48.802;9.190;2023-05-10T05:08:47;14.60;99.90
13174;DHT22;6652;48.802;9.190;2023-05-10T05:11:16;14.70;99.90
13174;DHT22;6652;48.802;9.190;2023-05-10T05:13:43;14.70;99.90
13174;DHT22;6652;48.802;9.190;2023-05-10T05:16:10;15.30;99.90
13174;DHT22;6652;48.802;9.190;2023-05-10T05:18:37;15.00;99.90
13174;DHT22;6652;48.802;9.190;2023-05-10T05:21:13;15.00;99.90
13174;DHT22;6652;48.802;9.190;2023-05-10T05:23:41;15.10;99.90
13174;DHT22;6652;48.802;9.190;2023-05-10T05:26:10;15.00;99.90
13174;DHT22;6652;48.802;9.190;2023-05-10T05:28:38;15.30;99.90
13174;DHT22;6652;48.802;9.190;2023-05-10T05:31:05;15.30;99.90
13174;DHT22;6652;48.802;9.190;2023-05-10T05:33:33;15.30;99.90
13174;DHT22;6652;48.802;9.190;2023-05-10T05:36:02;15.50;99.90
13174;DHT22;6652;48.802;9.190;2023-05-10T05:38:45;15.30;99.90
13174;DHT22;6652;48.802;9.190;2023-05-10T05:41:17;15.40;99.90
13174;DHT22;6652;48.802;9.190;2023-05-10T05:43:45;16.30;99.90
13174;DHT22;6652;48.802;9.190;2023-05-10T05:46:12;15.40;99.90
13174;DHT22;6652;48.802;9.190;2023-05-10T05:48:39;15.50;99.90
13174;DHT22;6652;48.802;9.190;2023-05-10T05:51:06;15.60;99.90
13174;DHT22;6652;48.802;9.190;2023-05-10T05:53:47;16.00;99.90
13174;DHT22;6652;48.802;9.190;2023-05-10T05:56:14;15.80;99.90
13174;DHT22;6652;48.802;9.190;2023-05-10T05:58:42;16.00;99.90
13174;DHT22;6652;48.802;9.190;2023-05-10T06:01:11;15.80;99.90
13174;DHT22;6652;48.802;9.190;2023-05-10T06:03:39;15.80;99.90
13174;DHT22;6652;48.802;9.190;2023-05-10T06:06:09;15.90;99.90
13174;DHT22;6652;48.802;9.190;2023-05-10T06:08:36;15.80;99.90
13174;DHT22;6652;48.802;9.190;2023-05-10T06:11:03;15.80;99.90
13174;DHT22;6652;48.802;9.190;2023-05-10T06:13:30;15.70;99.90
13174;DHT22;6652;48.802;9.190;2023-05-10T06:16:00;15.70;99.90
13174;DHT22;6652;48.802;9.190;2023-05-10T06:18:29;15.80;99.90
13174;DHT22;6652;48.802;9.190;2023-05-10T06:20:56;15.90;99.90
13174;DHT22;6652;48.802;9.190;2023-05-10T06:23:24;16.00;99.90
13174;DHT22;6652;48.802;9.190;2023-05-10T06:25:51;15.90;99.90
13174;DHT22;6652;48.802;9.190;2023-05-10T06:28:19;15.90;99.90
13174;DHT22;6652;48.802;9.190;2023-05-10T06:30:46;15.90;99.90
13174;DHT22;6652;48.802;9.190;2023-05-10T06:33:13;15.90;99.90
13174;DHT22;6652;48.802;9.190;2023-05-10T06:35:42;15.90;99.90
13174;DHT22;6652;48.802;9.190;2023-05-10T06:38:09;15.90;99.90
13174;DHT22;6652;48.802;9.190;2023-05-10T06:40:37;15.80;99.90
13174;DHT22;6652;48.802;9.190;2023-05-10T06:43:07;16.30;99.90
13174;DHT22;6652;48.802;9.190;2023-05-10T06:45:34;16.00;99.90
13174;DHT22;6652;48.802;9.190;2023-05-10T06:48:02;15.80;99.90
13174;DHT22;6652;48.802;9.190;2023-05-10T06:50:29;17.00;99.90
13174;DHT22;6652;48.802;9.190;2023-05-10T06:52:57;15.90;99.90
13174;DHT22;6652;48.802;9.190;2023-05-10T06:55:24;16.30;99.90
13174;DHT22;6652;48.802;9.190;2023-05-10T06:57:51;16.10;99.90
13174;DHT22;6652;48.802;9.190;2023-05-10T07:00:19;15.90;99.90
13174;DHT22;6652;48.802;9.190;2023-05-10T07:02:46;15.80;99.90
13174;DHT22;6652;48.802;9.190;2023-05-10T07:05:14;15.80;99.90
13174;DHT22;6652;48.802;9.190;2023-05-10T07:07:41;15.80;99.90
13174;DHT22;6652;48.802;9.190;2023-05-10T07:10:10;15.80;99.90
13174;DHT22;6652;48.802;9.190;2023-05-10T07:12:37;15.90;99.90
13174;DHT22;6652;48.802;9.190;2023-05-10T07:15:05;16.00;99.90
13174;DHT22;6652;48.802;9.190;2023-05-10T07:17:32;16.20;99.90
13174;DHT22;6652;48.802;9.190;2023-05-10T07:20:00;16.40;99.90
13174;DHT22;6652;48.802;9.190;2023-05-10T07:22:27;17.20;99.90
13174;DHT22;6652;48.802;9.190;2023-05-10T07:24:54;17.50;99.90
13174;DHT22;6652;48.802;9.190;2023-05-10T07:27:23;17.10;99.90
13174;DHT22;6652;48.802;9.190;2023-05-10T07:29:50;17.20;99.90
13174;DHT22;6652;48.802;9.190;2023-05-10T07:32:20;17.30;99.90
13174;DHT22;6652;48.802;9.190;2023-05-10T07:34:48;17.30;99.90
13174;DHT22;6652;48.802;9.190;2023-05-10T07:37:15;17.60;99.90
13174;DHT22;6652;48.802;9.190;2023-05-10T07:39:42;17.70;99.90
13174;DHT22;6652;48.802;9.190;2023-05-10T07:42:09;17.90;99.90
13174;DHT22;6652;48.802;9.190;2023-05-10T07:44:38;17.90;99.90
13174;DHT22;6652;48.802;9.190;2023-05-10T07:47:05;18.00;99.90
13174;DHT22;6652;48.802;9.190;2023-05-10T07:49:32;18.20;99.90
13174;DHT22;6652;48.802;9.190;2023-05-10T07:51:59;18.20;99.90
13174;DHT22;6652;48.802;9.190;2023-05-10T07:54:26;18.30;99.90
13174;DHT22;6652;48.802;9.190;2023-05-10T07:56:53;18.30;99.90
13174;DHT22;6652;48.802;9.190;2023-05-10T07:59:21;18.30;99.90
13174;DHT22;6652;48.802;9.190;2023-05-10T08:01:53;18.50;99.90
13174;DHT22;6652;48.802;9.190;2023-05-10T08:04:20;18.30;99.90
13174;DHT22;6652;48.802;9.190;2023-05-10T08:06:47;18.20;99.90
13174;DHT22;6652;48.802;9.190;2023-05-10T08:09:16;17.90;99.90
13174;DHT22;6652;48.802;9.190;2023-05-10T08:11:43;18.30;99.90
13174;DHT22;6652;48.802;9.190;2023-05-10T08:14:10;18.30;99.90
13174;DHT22;6652;48.802;9.190;2023-05-10T08:16:38;18.10;99.90
13174;DHT22;6652;48.802;9.190;2023-05-10T08:19:06;18.30;99.90
13174;DHT22;6652;48.802;9.190;2023-05-10T08:21:36;17.70;99.90
13174;DHT22;6652;48.802;9.190;2023-05-10T08:24:04;18.20;99.90
13174;DHT22;6652;48.802;9.190;2023-05-10T08:26:33;17.70;99.90
13174;DHT22;6652;48.802;9.190;2023-05-10T08:29:01;17.70;99.90
13174;DHT22;6652;48.802;9.190;2023-05-10T08:31:29;17.70;99.90
13174;DHT22;6652;48.802;9.190;2023-05-10T08:34:06;17.70;99.90
13174;DHT22;6652;48.802;9.190;2023-05-10T08:36:49;17.80;99.90
13174;DHT22;6652;48.802;9.190;2023-05-10T08:39:34;17.90;99.90
13174;DHT22;6652;48.802;9.190;2023-05-10T08:42:20;17.90;99.90
13174;DHT22;6652;48.802;9.190;2023-05-10T08:44:50;18.00;99.90
13174;DHT22;6652;48.802;9.190;2023-05-10T08:47:18;18.20;99.90
13174;DHT22;6652;48.802;9.190;2023-05-10T08:49:48;18.10;99.90
13174;DHT22;6652;48.802;9.190;2023-05-10T08:52:17;18.10;99.90
13174;DHT22;6652;48.802;9.190;2023-05-10T08:54:45;18.10;99.90
13174;DHT22;6652;48.802;9.190;2023-05-10T08:57:12;18.10;99.90
13174;DHT22;6652;48.802;9.190;2023-05-10T08:59:39;18.30;99.90
13174;DHT22;6652;48.802;9.190;2023-05-10T09:02:06;18.60;99.90
13174;DHT22;6652;48.802;9.190;2023-05-10T09:04:35;18.90;99.90
13174;DHT22;6652;48.802;9.190;2023-05-10T09:07:03;19.10;99.90
13174;DHT22;6652;48.802;9.190;2023-05-10T09:09:31;19.20;99.90
13174;DHT22;6652;48.802;9.190;2023-05-10T09:11:58;19.20;99.90
13174;DHT22;6652;48.802;9.190;2023-05-10T09:14:25;19.00;99.90
13174;DHT22;6652;48.802;9.190;2023-05-10T09:16:52;19.30;99.90
13174;DHT22;6652;48.802;9.190;2023-05-10T09:19:20;19.40;99.90
13174;DHT22;6652;48.802;9.190;2023-05-10T09:21:47;19.60;99.90
13174;DHT22;6652;48.802;9.190;2023-05-10T09:24:16;19.70;99.90
13174;DHT22;6652;48.802;9.190;2023-05-10T09:26:47;19.80;99.90
13174;DHT22;6652;48.802;9.190;2023-05-10T09:29:15;19.70;99.90
13174;DHT22;6652;48.802;9.190;2023-05-10T09:31:46;19.40;99.90
13174;DHT22;6652;48.802;9.190;2023-05-10T09:34:17;19.40;99.90
13174;DHT22;6652;48.802;9.190;2023-05-10T09:36:51;19.30;99.90
13174;DHT22;6652;48.802;9.190;2023-05-10T09:39:20;19.30;99.90
13174;DHT22;6652;48.802;9.190;2023-05-10T09:41:47;19.40;99.90
13174;DHT22;6652;48.802;9.190;2023-05-10T09:44:17;19.60;99.90
13174;DHT22;6652;48.802;9.190;2023-05-10T09:46:49;19.70;99.90
13174;DHT22;6652;48.802;9.190;2023-05-10T09:49:18;19.90;99.90
13174;DHT22;6652;48.802;9.190;2023-05-10T09:51:45;20.10;99.90
13174;DHT22;6652;48.802;9.190;2023-05-10T09:54:13;20.10;99.90
13174;DHT22;6652;48.802;9.190;2023-05-10T09:56:42;20.30;99.90
13174;DHT22;6652;48.802;9.190;2023-05-10T09:59:10;20.80;99.90
13174;DHT22;6652;48.802;9.190;2023-05-10T10:01:37;21.20;99.90
13174;DHT22;6652;48.802;9.190;2023-05-10T10:04:05;21.20;99.90
13174;DHT22;6652;48.802;9.190;2023-05-10T10:06:36;21.20;99.90
13174;DHT22;6652;48.802;9.190;2023-05-10T10:09:04;21.20;99.90
13174;DHT22;6652;48.802;9.190;2023-05-10T10:11:31;21.30;99.90
13174;DHT22;6652;48.802;9.190;2023-05-10T10:13:59;21.00;99.90
13174;DHT22;6652;48.802;9.190;2023-05-10T10:16:27;20.80;99.90
13174;DHT22;6652;48.802;9.190;2023-05-10T10:18:55;20.70;99.90
13174;DHT22;6652;48.802;9.190;2023-05-10T10:21:22;20.20;99.90
13174;DHT22;6652;48.802;9.190;2023-05-10T10:23:49;19.90;99.90
13174;DHT22;6652;48.802;9.190;2023-05-10T10:26:17;20.10;99.90
13174;DHT22;6652;48.802;9.190;2023-05-10T10:28:49;19.60;99.90
13174;DHT22;6652;48.802;9.190;2023-05-10T10:31:26;19.70;99.90
13174;DHT22;6652;48.802;9.190;2023-05-10T10:34:01;19.90;99.90
13174;DHT22;6652;48.802;9.190;2023-05-10T10:36:30;20.10;99.90
13174;DHT22;6652;48.802;9.190;2023-05-10T10:38:59;20.40;99.90
13174;DHT22;6652;48.802;9.190;2023-05-10T10:41:32;21.00;99.90
13174;DHT22;6652;48.802;9.190;2023-05-10T10:44:24;21.10;99.90
13174;DHT22;6652;48.802;9.190;2023-05-10T10:50:06;20.50;99.90
13174;DHT22;6652;48.802;9.190;2023-05-10T10:52:33;20.20;99.90
13174;DHT22;6652;48.802;9.190;2023-05-10T10:55:02;20.10;99.90
13174;DHT22;6652;48.802;9.190;2023-05-10T10:57:43;20.00;99.90
13174;DHT22;6652;48.802;9.190;2023-05-10T11:00:24;20.00;99.90
13174;DHT22;6652;48.802;9.190;2023-05-10T11:02:55;19.90;99.90
13174;DHT22;6652;48.802;9.190;2023-05-10T11:05:43;19.90;99.90
13174;DHT22;6652;48.802;9.190;2023-05-10T11:08:13;19.70;99.90
13174;DHT22;6652;48.802;9.190;2023-05-10T11:10:50;19.50;99.90
13174;DHT22;6652;48.802;9.190;2023-05-10T11:13:27;19.40;99.90
13174;DHT22;6652;48.802;9.190;2023-05-10T11:15:56;19.30;99.90
13174;DHT22;6652;48.802;9.190;2023-05-10T11:18:27;19.10;99.90
13174;DHT22;6652;48.802;9.190;2023-05-10T11:20:57;19.10;99.90
13174;DHT22;6652;48.802;9.190;2023-05-10T11:23:29;19.40;99.90
13174;DHT22;6652;48.802;9.190;2023-05-10T11:25:57;18.90;99.90
13174;DHT22;6652;48.802;9.190;2023-05-10T11:28:24;18.70;99.90
13174;DHT22;6652;48.802;9.190;2023-05-10T11:30:52;18.70;99.90
13174;DHT22;6652;48.802;9.190;2023-05-10T11:33:20;18.60;99.90
13174;DHT22;6652;48.802;9.190;2023-05-10T11:35:48;18.60;99.90
13174;DHT22;6652;48.802;9.190;2023-05-10T11:38:15;18.90;99.90
13174;DHT22;6652;48.802;9.190;2023-05-10T11:40:42;18.90;99.90
13174;DHT22;6652;48.802;9.190;2023-05-10T11:43:09;18.90;99.90
13174;DHT22;6652;48.802;9.190;2023-05-10T11:45:38;19.30;99.90
13174;DHT22;6652;48.802;9.190;2023-05-10T11:48:06;19.40;99.90
13174;DHT22;6652;48.802;9.190;2023-05-10T11:50:36;19.50;99.90
13174;DHT22;6652;48.802;9.190;2023-05-10T11:53:04;19.60;99.90
13174;DHT22;6652;48.802;9.190;2023-05-10T11:55:33;19.60;99.90
13174;DHT22;6652;48.802;9.190;2023-05-10T11:58:01;19.50;99.90
13174;DHT22;6652;48.802;9.190;2023-05-10T12:00:29;19.50;99.90
13174;DHT22;6652;48.802;9.190;2023-05-10T12:02:57;19.30;99.90
13174;DHT22;6652;48.802;9.190;2023-05-10T12:05:24;19.20;99.90
13174;DHT22;6652;48.802;9.190;2023-05-10T12:07:51;19.10;99.90
13174;DHT22;6652;48.802;9.190;2023-05-10T12:10:25;19.10;99.90
13174;DHT22;6652;48.802;9.190;2023-05-10T12:12:53;18.90;99.90
13174;DHT22;6652;48.802;9.190;2023-05-10T12:15:21;18.70;99.90
13174;DHT22;6652;48.802;9.190;2023-05-10T12:17:49;19.10;99.90
13174;DHT22;6652;48.802;9.190;2023-05-10T12:20:17;18.70;99.90
13174;DHT22;6652;48.802;9.190;2023-05-10T12:22:47;18.70;99.90
13174;DHT22;6652;48.802;9.190;2023-05-10T12:25:14;18.60;99.90
13174;DHT22;6652;48.802;9.190;2023-05-10T12:27:48;18.70;99.90
13174;DHT22;6652;48.802;9.190;2023-05-10T12:30:19;19.00;99.90
13174;DHT22;6652;48.802;9.190;2023-05-10T12:32:46;19.00;99.90
13174;DHT22;6652;48.802;9.190;2023-05-10T12:35:13;19.10;99.90
13174;DHT22;6652;48.802;9.190;2023-05-10T12:37:40;19.20;99.90
13174;DHT22;6652;48.802;9.190;2023-05-10T12:40:08;19.20;99.90
13174;DHT22;6652;48.802;9.190;2023-05-10T12:42:36;19.30;99.90
13174;DHT22;6652;48.802;9.190;2023-05-10T12:45:07;19.40;99.90
13174;DHT22;6652;48.802;9.190;2023-05-10T12:47:34;19.50;99.90
13174;DHT22;6652;48.802;9.190;2023-05-10T12:50:02;19.50;99.90
13174;DHT22;6652;48.802;9.190;2023-05-10T12:52:29;19.50;99.90
13174;DHT22;6652;48.802;9.190;2023-05-10T12:54:57;19.50;99.90
13174;DHT22;6652;48.802;9.190;2023-05-10T12:57:24;19.50;99.90
13174;DHT22;6652;48.802;9.190;2023-05-10T12:59:51;19.50;99.90
13174;DHT22;6652;48.802;9.190;2023-05-10T13:02:19;19.50;99.90
13174;DHT22;6652;48.802;9.190;2023-05-10T13:04:46;19.30;99.90
13174;DHT22;6652;48.802;9.190;2023-05-10T13:07:13;19.30;99.90
13174;DHT22;6652;48.802;9.190;2023-05-10T13:09:40;19.20;99.90
13174;DHT22;6652;48.802;9.190;2023-05-10T13:12:07;19.00;99.90
13174;DHT22;6652;48.802;9.190;2023-05-10T13:14:34;18.80;99.90
13174;DHT22;6652;48.802;9.190;2023-05-10T13:17:01;18.60;99.90
13174;DHT22;6652;48.802;9.190;2023-05-10T13:19:29;18.40;99.90
13174;DHT22;6652;48.802;9.190;2023-05-10T13:21:56;18.40;99.90
13174;DHT22;6652;48.802;9.190;2023-05-10T13:24:23;18.30;99.90
13174;DHT22;6652;48.802;9.190;2023-05-10T13:26:50;18.40;99.90
13174;DHT22;6652;48.802;9.190;2023-05-10T13:29:18;18.30;99.90
13174;DHT22;6652;48.802;9.190;2023-05-10T13:31:48;18.10;99.90
13174;DHT22;6652;48.802;9.190;2023-05-10T13:34:16;17.50;99.90
13174;DHT22;6652;48.802;9.190;2023-05-10T13:36:47;18.70;99.90
13174;DHT22;6652;48.802;9.190;2023-05-10T13:39:14;18.80;99.90
13174;DHT22;6652;48.802;9.190;2023-05-10T13:41:41;19.00;99.90
13174;DHT22;6652;48.802;9.190;2023-05-10T13:44:08;19.10;99.90
13174;DHT22;6652;48.802;9.190;2023-05-10T13:46:36;19.20;99.90
13174;DHT22;6652;48.802;9.190;2023-05-10T13:49:03;19.20;99.90
13174;DHT22;6652;48.802;9.190;2023-05-10T13:51:30;19.30;99.90
13174;DHT22;6652;48.802;9.190;2023-05-10T13:53:59;19.40;99.90
13174;DHT22;6652;48.802;9.190;2023-05-10T13:56:26;19.40;99.90
13174;DHT22;6652;48.802;9.190;2023-05-10T13:58:53;19.30;99.90
13174;DHT22;6652;48.802;9.190;2023-05-10T14:01:19;19.30;99.90
13174;DHT22;6652;48.802;9.190;2023-05-10T14:03:46;19.20;99.90
13174;DHT22;6652;48.802;9.190;2023-05-10T14:06:13;19.20;99.90
13174;DHT22;6652;48.802;9.190;2023-05-10T14:08:40;19.10;99.90
13174;DHT22;6652;48.802;9.190;2023-05-10T14:11:08;19.10;99.90
13174;DHT22;6652;48.802;9.190;2023-05-10T14:13:35;19.10;99.90
13174;DHT22;6652;48.802;9.190;2023-05-10T14:16:02;19.20;99.90
13174;DHT22;6652;48.802;9.190;2023-05-10T14:18:29;19.40;99.90
13174;DHT22;6652;48.802;9.190;2023-05-10T14:20:56;19.50;99.90
13174;DHT22;6652;48.802;9.190;2023-05-10T14:23:23;19.50;99.90
13174;DHT22;6652;48.802;9.190;2023-05-10T14:25:51;19.50;99.70
13174;DHT22;6652;48.802;9.190;2023-05-10T14:28:19;19.60;99.90
13174;DHT22;6652;48.802;9.190;2023-05-10T14:30:48;19.60;99.70
13174;DHT22;6652;48.802;9.190;2023-05-10T14:33:16;19.60;98.80
13174;DHT22;6652;48.802;9.190;2023-05-10T14:35:44;19.50;99.20
13174;DHT22;6652;48.802;9.190;2023-05-10T14:38:12;19.40;98.80
13174;DHT22;6652;48.802;9.190;2023-05-10T14:40:39;19.50;99.40
13174;DHT22;6652;48.802;9.190;2023-05-10T14:43:05;19.60;99.70
13174;DHT22;6652;48.802;9.190;2023-05-10T14:45:34;19.70;99.00
13174;DHT22;6652;48.802;9.190;2023-05-10T14:48:00;19.60;98.90
13174;DHT22;6652;48.802;9.190;2023-05-10T14:50:29;19.70;99.60
13174;DHT22;6652;48.802;9.190;2023-05-10T14:52:56;19.90;99.50
13174;DHT22;6652;48.802;9.190;2023-05-10T14:55:23;19.90;99.20
13174;DHT22;6652;48.802;9.190;2023-05-10T14:57:50;19.80;98.50
13174;DHT22;6652;48.802;9.190;2023-05-10T15:00:18;19.70;98.30
13174;DHT22;6652;48.802;9.190;2023-05-10T15:02:46;19.60;98.50
13174;DHT22;6652;48.802;9.190;2023-05-10T15:05:13;19.50;98.30
13174;DHT22;6652;48.802;9.190;2023-05-10T15:07:40;19.40;98.60
13174;DHT22;6652;48.802;9.190;2023-05-10T15:10:09;19.40;98.70
13174;DHT22;6652;48.802;9.190;2023-05-10T15:12:37;19.40;99.40
13174;DHT22;6652;48.802;9.190;2023-05-10T15:15:07;19.40;99.20
13174;DHT22;6652;48.802;9.190;2023-05-10T15:17:34;19.40;99.10
13174;DHT22;6652;48.802;9.190;2023-05-10T15:20:02;19.40;99.50
13174;DHT22;6652;48.802;9.190;2023-05-10T15:22:29;19.40;99.30
13174;DHT22;6652;48.802;9.190;2023-05-10T15:24:57;19.30;99.40
13174;DHT22;6652;48.802;9.190;2023-05-10T15:27:24;19.30;99.90
13174;DHT22;6652;48.802;9.190;2023-05-10T15:29:51;19.30;99.90
13174;DHT22;6652;48.802;9.190;2023-05-10T15:32:18;19.40;99.90
13174;DHT22;6652;48.802;9.190;2023-05-10T15:34:45;19.20;99.90
13174;DHT22;6652;48.802;9.190;2023-05-10T15:37:13;19.30;99.90
13174;DHT22;6652;48.802;9.190;2023-05-10T15:39:40;19.60;99.90
13174;DHT22;6652;48.802;9.190;2023-05-10T15:42:07;19.30;99.90
13174;DHT22;6652;48.802;9.190;2023-05-10T15:44:36;19.10;99.90
13174;DHT22;6652;48.802;9.190;2023-05-10T15:47:04;19.40;99.90
13174;DHT22;6652;48.802;9.190;2023-05-10T15:49:31;19.40;99.90
13174;DHT22;6652;48.802;9.190;2023-05-10T15:51:58;19.50;99.90
13174;DHT22;6652;48.802;9.190;2023-05-10T15:54:26;19.50;99.90
13174;DHT22;6652;48.802;9.190;2023-05-10T15:56:53;19.40;99.90